Time;durP1;ratioP1;P1;durP2;ratioP2;P2;SDS_P1;SDS_P2;PMS_P1;PMS_P2;Temp;Humidity;BMP_temperature;BMP_pressure;BME280_temperature;BME280_humidity;BME280_pressure;Samples;Min_cycle;Max_cycle;Signal;HPM_P1;HPM_P2
2023/03/31 00:02:22;;;;;;;7.23;1.47;;;9.90;99.90;;;;;;5085231;28;20220;-88
2023/03/31 00:04:58;;;;;;;5.33;1.57;;;9.90;99.90;;;;;;5078632;28;20693;-88
2023/03/31 00:07:24;;;;;;;1.30;0.90;;;9.90;99.90;;;;;;5090426;28;20220;-88
2023/03/31 00:09:53;;;;;;;1.30;1.13;;;10.00;99.90;;;;;;5085802;28;20236;-87
2023/03/31 00:12:20;;;;;;;2.27;1.53;;;10.00;99.90;;;;;;5054482;28;20201;-88
2023/03/31 00:14:46;;;;;;;4.30;1.30;;;10.00;99.90;;;;;;5070993;28;20192;-88
2023/03/31 00:17:13;;;;;;;2.33;2.23;;;10.00;99.90;;;;;;5077561;28;20229;-88
2023/03/31 00:19:41;;;;;;;3.97;2.30;;;9.90;99.90;;;;;;5073380;28;20679;-88
2023/03/31 00:22:08;;;;;;;10.87;1.33;;;9.90;99.90;;;;;;5086497;28;20224;-88
2023/03/31 00:24:34;;;;;;;6.33;1.57;;;9.90;99.90;;;;;;5081426;28;20716;-88
2023/03/31 00:27:01;;;;;;;3.60;2.23;;;9.90;99.90;;;;;;5087600;28;20188;-88
2023/03/31 00:29:27;;;;;;;11.63;2.20;;;9.90;99.90;;;;;;5084844;28;20619;-88
2023/03/31 00:31:54;;;;;;;6.00;2.67;;;10.00;99.90;;;;;;5086106;28;20209;-87
2023/03/31 00:34:20;;;;;;;3.87;1.27;;;10.00;99.90;;;;;;5086859;28;20346;-87
2023/03/31 00:36:46;;;;;;;28.77;4.03;;;10.00;99.90;;;;;;5059470;28;20229;-88
2023/03/31 00:39:14;;;;;;;1.37;1.27;;;10.00;99.90;;;;;;5079851;28;20188;-87
2023/03/31 00:41:41;;;;;;;10.57;2.47;;;10.10;99.90;;;;;;5085724;28;20177;-88
2023/03/31 00:44:09;;;;;;;8.27;3.10;;;10.10;99.90;;;;;;5083154;28;20245;-88
2023/03/31 00:46:55;;;;;;;3.83;1.67;;;10.10;99.90;;;;;;5076021;28;20267;-88
2023/03/31 00:49:27;;;;;;;9.47;2.27;;;10.10;99.90;;;;;;5088580;28;20220;-88
2023/03/31 00:51:59;;;;;;;7.77;2.50;;;10.10;99.90;;;;;;5079875;28;20216;-88
2023/03/31 00:54:26;;;;;;;4.23;2.87;;;10.10;99.90;;;;;;5081997;28;20185;-88
2023/03/31 00:56:54;;;;;;;12.03;1.90;;;10.10;99.90;;;;;;5057966;28;20249;-88
2023/03/31 00:59:26;;;;;;;11.70;2.37;;;10.10;99.90;;;;;;5084266;28;20227;-88
2023/03/31 01:01:54;;;;;;;11.13;1.67;;;10.10;99.90;;;;;;5085820;28;20625;-88
2023/03/31 01:04:22;;;;;;;4.97;2.63;;;10.00;99.90;;;;;;5086499;28;20277;-88
2023/03/31 01:07:11;;;;;;;4.90;1.73;;;10.00;99.90;;;;;;5081990;28;20217;-88
2023/03/31 01:09:38;;;;;;;5.43;1.07;;;9.90;99.90;;;;;;5087587;28;20218;-88
2023/03/31 01:12:08;;;;;;;8.53;2.53;;;9.90;99.90;;;;;;5080523;28;20180;-87
2023/03/31 01:14:35;;;;;;;2.90;1.97;;;9.90;99.90;;;;;;5089201;28;20216;-88
2023/03/31 01:17:01;;;;;;;16.13;2.53;;;9.90;99.90;;;;;;5054223;28;20244;-88
2023/03/31 01:19:56;;;;;;;4.67;1.57;;;9.90;99.90;;;;;;5077792;28;20220;-88
2023/03/31 01:22:50;;;;;;;18.63;3.00;;;9.80;99.90;;;;;;5081786;28;20295;-88
2023/03/31 01:25:46;;;;;;;10.10;2.23;;;9.80;99.90;;;;;;5091987;28;20232;-88
2023/03/31 01:28:31;;;;;;;11.37;1.33;;;9.80;99.90;;;;;;5038052;28;20225;-88
2023/03/31 01:31:17;;;;;;;4.73;2.23;;;9.80;99.90;;;;;;5094873;28;20758;-88
2023/03/31 01:34:17;;;;;;;5.63;2.30;;;9.70;99.90;;;;;;5088816;28;20311;-88
2023/03/31 01:37:41;;;;;;;6.33;1.87;;;9.60;99.90;;;;;;5089145;28;20590;-88
2023/03/31 01:40:26;;;;;;;10.37;3.27;;;9.60;99.90;;;;;;4986847;28;20224;-88
2023/03/31 01:43:05;;;;;;;6.20;2.53;;;9.60;99.90;;;;;;5076469;28;20262;-88
2023/03/31 01:45:45;;;;;;;0.73;0.70;;;9.50;99.90;;;;;;5090811;28;20257;-88
2023/03/31 01:48:19;;;;;;;1.00;1.00;;;9.50;99.90;;;;;;5093005;28;20196;-88
2023/03/31 01:50:45;;;;;;;7.90;2.17;;;9.50;99.90;;;;;;5082207;28;20188;-89
2023/03/31 01:53:27;;;;;;;6.70;2.20;;;9.50;99.90;;;;;;5093249;28;20227;-89
2023/03/31 01:56:07;;;;;;;4.63;0.53;;;9.50;99.90;;;;;;5104799;28;20244;-88
2023/03/31 01:58:43;;;;;;;9.73;2.20;;;9.50;99.90;;;;;;5092245;28;20239;-89
2023/03/31 02:01:25;;;;;;;9.77;1.00;;;9.50;99.90;;;;;;5087544;28;20662;-89
2023/03/31 02:04:19;;;;;;;1.70;1.10;;;9.50;99.90;;;;;;5085068;28;20299;-89
2023/03/31 02:06:51;;;;;;;13.63;2.07;;;9.50;99.90;;;;;;5077787;28;20694;-90
2023/03/31 02:09:22;;;;;;;3.17;1.73;;;9.60;99.90;;;;;;5082084;28;20235;-89
2023/03/31 02:11:50;;;;;;;5.73;1.33;;;9.50;99.90;;;;;;5101904;28;20200;-89
2023/03/31 02:14:21;;;;;;;8.63;2.47;;;9.60;99.90;;;;;;5072440;28;20240;-89
2023/03/31 02:16:51;;;;;;;3.50;1.00;;;9.60;99.90;;;;;;5086538;28;20236;-89
2023/03/31 02:19:20;;;;;;;1.63;1.17;;;9.60;99.90;;;;;;5085081;28;20221;-89
2023/03/31 02:21:49;;;;;;;4.73;0.83;;;9.70;99.90;;;;;;5103700;28;20225;-88
2023/03/31 02:24:18;;;;;;;8.17;2.00;;;9.70;99.90;;;;;;5086446;28;20271;-88
2023/03/31 02:26:56;;;;;;;1.97;1.67;;;9.80;99.90;;;;;;5084824;28;20177;-88
2023/03/31 02:29:22;;;;;;;5.73;1.90;;;9.80;99.90;;;;;;5080581;28;20697;-88
2023/03/31 02:31:57;;;;;;;7.40;1.07;;;9.90;99.90;;;;;;5073302;28;20228;-89
2023/03/31 02:34:23;;;;;;;4.93;2.43;;;9.90;99.90;;;;;;5089958;28;20221;-88
2023/03/31 02:36:49;;;;;;;10.33;1.67;;;10.00;99.90;;;;;;5082425;28;20316;-88
2023/03/31 02:39:23;;;;;;;4.57;4.13;;;10.00;99.90;;;;;;5088527;28;20233;-87
2023/03/31 02:41:49;;;;;;;5.90;1.73;;;10.00;99.90;;;;;;5086072;28;20693;-88
2023/03/31 02:44:16;;;;;;;7.50;4.37;;;10.00;99.90;;;;;;5076688;28;20246;-89
2023/03/31 02:46:42;;;;;;;3.60;2.43;;;10.00;99.90;;;;;;5072790;28;20264;-89
2023/03/31 02:49:09;;;;;;;4.87;1.47;;;10.00;99.90;;;;;;5058643;28;20212;-88
2023/03/31 02:52:02;;;;;;;10.40;1.40;;;10.10;99.90;;;;;;5087538;28;20224;-88
2023/03/31 02:54:46;;;;;;;10.23;2.00;;;10.10;99.90;;;;;;5057476;28;20193;-89
2023/03/31 02:57:42;;;;;;;2.87;2.07;;;10.10;99.90;;;;;;5087729;28;20248;-88
2023/03/31 03:00:37;;;;;;;5.37;1.77;;;10.20;99.90;;;;;;5093290;28;20181;-88
2023/03/31 03:03:13;;;;;;;3.37;1.30;;;10.20;99.90;;;;;;5083149;28;20220;-89
2023/03/31 03:06:15;;;;;;;4.03;1.23;;;10.20;99.90;;;;;;5095440;28;20212;-88
2023/03/31 03:09:00;;;;;;;2.17;1.50;;;10.20;99.90;;;;;;5091999;28;20486;-88
2023/03/31 03:11:43;;;;;;;1.57;1.33;;;10.20;99.90;;;;;;5108383;28;20211;-87
2023/03/31 03:14:12;;;;;;;5.73;1.27;;;10.20;99.90;;;;;;5105550;28;20213;-87
2023/03/31 03:16:49;;;;;;;1.50;1.17;;;10.20;99.90;;;;;;5102224;28;20235;-87
2023/03/31 03:19:22;;;;;;;13.63;1.73;;;10.20;99.90;;;;;;5084139;28;20273;-88
2023/03/31 03:21:48;;;;;;;2.67;1.80;;;10.20;99.90;;;;;;5088836;28;20225;-88
2023/03/31 03:24:18;;;;;;;7.40;1.27;;;10.20;99.90;;;;;;5058418;28;20653;-87
2023/03/31 03:26:44;;;;;;;12.23;2.87;;;10.20;99.90;;;;;;5095737;28;20208;-88
2023/03/31 03:29:14;;;;;;;2.37;1.60;;;10.20;99.90;;;;;;5090590;28;20687;-88
2023/03/31 03:31:41;;;;;;;5.47;1.93;;;10.30;99.90;;;;;;5076119;28;20278;-86
2023/03/31 03:34:08;;;;;;;5.63;0.60;;;10.20;99.90;;;;;;5108538;28;20232;-87
2023/03/31 03:36:38;;;;;;;4.43;1.43;;;10.30;99.90;;;;;;5104766;28;20228;-87
2023/03/31 03:39:06;;;;;;;0.90;0.87;;;10.30;99.90;;;;;;5081784;28;20231;-88
2023/03/31 03:41:32;;;;;;;1.60;1.23;;;10.30;99.90;;;;;;5071185;28;20211;-88
2023/03/31 03:43:59;;;;;;;8.40;1.77;;;10.40;99.90;;;;;;5057075;28;20221;-88
2023/03/31 03:46:25;;;;;;;1.00;0.97;;;10.40;99.90;;;;;;5085287;28;20248;-88
2023/03/31 03:48:52;;;;;;;2.17;1.77;;;10.40;99.90;;;;;;5072338;28;20217;-88
2023/03/31 03:51:18;;;;;;;5.27;2.73;;;10.40;99.90;;;;;;5069318;28;20189;-88
2023/03/31 03:53:44;;;;;;;3.43;1.13;;;10.50;99.90;;;;;;5087835;28;20585;-88
2023/03/31 03:56:10;;;;;;;1.80;1.10;;;10.40;99.90;;;;;;5082590;28;20217;-87
2023/03/31 03:58:35;;;;;;;6.57;1.37;;;10.40;99.90;;;;;;5054608;28;20239;-87
2023/03/31 04:01:01;;;;;;;2.00;1.80;;;10.40;99.90;;;;;;5085266;28;20266;-87
2023/03/31 04:03:27;;;;;;;0.93;0.90;;;10.40;99.90;;;;;;5068688;28;20315;-88
2023/03/31 04:05:53;;;;;;;3.87;1.07;;;10.40;99.90;;;;;;5073731;28;20199;-87
2023/03/31 04:08:19;;;;;;;5.40;1.57;;;10.40;99.90;;;;;;5085963;28;20224;-87
2023/03/31 04:10:48;;;;;;;2.20;2.10;;;10.40;99.90;;;;;;5053817;28;20277;-88
2023/03/31 04:13:15;;;;;;;8.73;2.23;;;10.40;99.90;;;;;;5071145;28;20325;-90
2023/03/31 04:15:43;;;;;;;1.53;0.67;;;10.40;99.90;;;;;;5088723;28;20693;-87
2023/03/31 04:18:09;;;;;;;3.83;2.23;;;10.40;99.90;;;;;;5085613;28;20229;-87
2023/03/31 04:20:38;;;;;;;10.00;2.10;;;10.40;99.90;;;;;;5068968;28;20216;-87
2023/03/31 04:23:08;;;;;;;6.17;2.20;;;10.40;99.90;;;;;;5071762;28;20260;-87
2023/03/31 04:25:37;;;;;;;1.20;1.10;;;10.40;99.90;;;;;;5065120;28;20240;-85
2023/03/31 04:28:05;;;;;;;2.13;1.80;;;10.40;99.90;;;;;;5067140;28;20574;-86
2023/03/31 04:30:31;;;;;;;5.40;1.67;;;10.40;99.90;;;;;;5068756;28;20226;-87
2023/03/31 04:33:02;;;;;;;6.43;3.27;;;10.40;99.90;;;;;;5066229;28;20279;-86
2023/03/31 04:35:51;;;;;;;2.13;1.40;;;10.40;99.90;;;;;;5073703;28;20311;-87
2023/03/31 04:38:17;;;;;;;6.67;2.13;;;10.40;99.90;;;;;;5083595;28;20301;-87
2023/03/31 04:40:48;;;;;;;3.00;2.13;;;10.40;99.90;;;;;;5068862;28;21027;-87
2023/03/31 04:43:15;;;;;;;2.53;1.60;;;10.40;99.90;;;;;;5072464;28;20690;-89
2023/03/31 04:45:41;;;;;;;3.63;1.73;;;10.40;99.90;;;;;;5070974;28;20224;-89
2023/03/31 04:48:07;;;;;;;3.83;1.43;;;10.30;99.90;;;;;;5083196;28;20206;-89
2023/03/31 04:50:33;;;;;;;4.13;2.27;;;10.30;99.90;;;;;;5068325;28;20236;-89
2023/03/31 04:52:59;;;;;;;4.07;2.70;;;10.40;99.90;;;;;;5049924;28;20301;-89
2023/03/31 04:55:26;;;;;;;3.17;1.77;;;10.30;99.90;;;;;;5082601;28;20219;-88
2023/03/31 04:57:52;;;;;;;2.53;1.93;;;10.30;99.90;;;;;;5071889;28;20598;-88
2023/03/31 05:00:20;;;;;;;7.70;2.93;;;10.30;99.90;;;;;;5063561;28;20197;-89
2023/03/31 05:02:45;;;;;;;5.17;1.73;;;10.30;99.90;;;;;;5071779;28;20196;-89
2023/03/31 05:05:11;;;;;;;1.57;1.40;;;10.30;99.90;;;;;;5079595;28;20710;-87
2023/03/31 05:07:38;;;;;;;4.37;2.30;;;10.30;99.90;;;;;;5083021;28;20227;-88
2023/03/31 05:10:04;;;;;;;1.37;1.27;;;10.40;99.90;;;;;;5053329;28;20255;-88
2023/03/31 05:12:34;;;;;;;1.93;1.80;;;10.30;99.90;;;;;;5068973;28;20191;-89
2023/03/31 05:15:00;;;;;;;4.07;2.40;;;10.30;99.90;;;;;;5068921;28;20191;-88
2023/03/31 05:17:26;;;;;;;5.97;2.97;;;10.30;99.90;;;;;;5080416;28;20307;-86
2023/03/31 05:19:52;;;;;;;10.43;2.83;;;10.40;99.90;;;;;;5103003;28;20247;-86
2023/03/31 05:22:19;;;;;;;4.60;2.50;;;10.30;99.90;;;;;;5079923;28;20240;-87
2023/03/31 05:24:46;;;;;;;13.07;2.40;;;10.30;99.90;;;;;;5085749;28;20222;-86
2023/03/31 05:27:12;;;;;;;2.23;1.90;;;10.30;99.90;;;;;;5071917;28;20184;-85
2023/03/31 05:29:38;;;;;;;2.77;1.57;;;10.30;99.90;;;;;;5083664;28;20196;-85
2023/03/31 05:32:04;;;;;;;3.23;1.17;;;10.30;99.90;;;;;;5082892;28;20295;-85
2023/03/31 05:34:30;;;;;;;2.93;1.00;;;10.30;99.90;;;;;;5081058;28;20228;-85
2023/03/31 05:36:56;;;;;;;3.50;2.40;;;10.30;99.90;;;;;;5076688;28;20239;-85
2023/03/31 05:39:22;;;;;;;2.03;1.87;;;10.30;99.90;;;;;;5071072;28;20192;-84
2023/03/31 05:41:48;;;;;;;5.93;2.27;;;10.30;99.90;;;;;;5071635;28;20193;-86
2023/03/31 05:44:14;;;;;;;1.63;1.53;;;10.30;99.90;;;;;;5067945;28;20580;-85
2023/03/31 05:46:40;;;;;;;2.20;1.43;;;10.30;99.90;;;;;;5081883;28;20309;-84
2023/03/31 05:49:06;;;;;;;1.20;0.93;;;10.30;99.90;;;;;;5083442;28;20682;-84
2023/03/31 05:51:32;;;;;;;1.43;1.33;;;10.30;99.90;;;;;;5071310;28;20299;-86
2023/03/31 05:53:58;;;;;;;6.50;2.43;;;10.30;99.90;;;;;;5052799;28;20182;-85
2023/03/31 05:56:23;;;;;;;3.97;1.73;;;10.30;99.90;;;;;;5080677;28;20281;-85
2023/03/31 05:58:49;;;;;;;3.70;1.73;;;10.30;99.90;;;;;;5052802;28;20240;-84
2023/03/31 06:01:21;;;;;;;2.60;1.70;;;10.30;99.90;;;;;;5072129;28;20296;-85
2023/03/31 06:03:47;;;;;;;3.27;2.57;;;10.30;99.90;;;;;;5079575;28;20223;-86
2023/03/31 06:06:15;;;;;;;3.17;2.53;;;10.30;99.90;;;;;;5071912;28;20185;-86
2023/03/31 06:08:42;;;;;;;1.50;1.37;;;10.30;99.90;;;;;;5081598;28;20627;-89
2023/03/31 06:11:11;;;;;;;6.00;2.70;;;10.30;99.90;;;;;;5052570;28;20213;-88
2023/03/31 06:13:37;;;;;;;4.00;1.67;;;10.30;99.90;;;;;;5088610;28;20213;-87
2023/03/31 06:16:04;;;;;;;2.20;1.60;;;10.40;99.90;;;;;;5075117;28;20307;-87
2023/03/31 06:18:32;;;;;;;3.13;1.57;;;10.40;99.90;;;;;;5058311;28;20211;-86
2023/03/31 06:20:59;;;;;;;4.27;2.17;;;10.40;99.90;;;;;;5084577;28;20560;-86
2023/03/31 06:23:25;;;;;;;1.63;0.93;;;10.40;99.90;;;;;;5068348;28;20223;-86
2023/03/31 06:25:52;;;;;;;8.73;1.57;;;10.40;99.90;;;;;;5075030;28;20282;-86
2023/03/31 06:28:19;;;;;;;2.00;1.70;;;10.40;99.90;;;;;;5086432;28;20268;-86
2023/03/31 06:30:44;;;;;;;7.30;1.30;;;10.40;99.90;;;;;;5081965;28;20216;-86
2023/03/31 06:33:10;;;;;;;3.43;1.33;;;10.40;99.90;;;;;;5081867;28;20189;-85
2023/03/31 06:35:40;;;;;;;2.53;2.17;;;10.50;99.90;;;;;;5090432;28;20276;-85
2023/03/31 06:38:07;;;;;;;4.57;2.23;;;10.50;99.90;;;;;;5086080;28;20243;-85
2023/03/31 06:40:33;;;;;;;3.60;3.30;;;10.50;99.90;;;;;;5085531;28;20236;-85
2023/03/31 06:42:59;;;;;;;1.40;1.13;;;10.50;99.90;;;;;;5088131;28;20225;-85
2023/03/31 06:45:24;;;;;;;3.00;1.63;;;10.50;99.90;;;;;;5084901;28;20211;-86
2023/03/31 06:47:50;;;;;;;8.03;2.97;;;10.50;99.90;;;;;;5069178;28;20193;-85
2023/03/31 06:50:16;;;;;;;1.30;1.00;;;10.60;99.90;;;;;;5074531;28;20213;-85
2023/03/31 06:52:42;;;;;;;5.77;2.47;;;10.60;99.90;;;;;;5056609;28;20208;-85
2023/03/31 06:55:09;;;;;;;1.60;1.47;;;10.60;99.90;;;;;;5079360;28;20625;-89
2023/03/31 06:57:35;;;;;;;1.20;1.10;;;10.60;99.90;;;;;;5080853;28;20267;-86
2023/03/31 07:00:02;;;;;;;1.33;1.23;;;10.60;99.90;;;;;;5069955;28;20264;-86
2023/03/31 07:02:28;;;;;;;4.70;1.67;;;10.60;99.90;;;;;;5086806;28;20232;-86
2023/03/31 07:04:54;;;;;;;0.80;0.80;;;10.60;99.90;;;;;;5074038;28;20224;-85
2023/03/31 07:07:20;;;;;;;2.30;2.20;;;10.60;99.90;;;;;;5056115;28;20450;-85
2023/03/31 07:09:45;;;;;;;3.50;1.97;;;10.60;99.90;;;;;;5057715;28;20224;-85
2023/03/31 07:12:11;;;;;;;1.20;1.20;;;10.60;99.90;;;;;;5055380;28;20525;-85
2023/03/31 07:14:37;;;;;;;4.60;1.23;;;10.50;99.90;;;;;;5085946;28;20185;-85
2023/03/31 07:17:02;;;;;;;5.50;2.33;;;10.50;99.90;;;;;;5073781;28;20299;-86
2023/03/31 07:19:28;;;;;;;10.40;1.40;;;10.60;99.90;;;;;;5065418;28;20220;-86
2023/03/31 07:21:55;;;;;;;0.50;0.50;;;10.60;99.90;;;;;;5066896;28;20590;-85
2023/03/31 07:24:21;;;;;;;1.97;0.80;;;10.60;99.90;;;;;;5089788;28;20692;-85
2023/03/31 07:26:47;;;;;;;1.03;0.87;;;10.60;99.90;;;;;;5076838;28;20185;-84
2023/03/31 07:29:13;;;;;;;1.27;1.10;;;10.60;99.90;;;;;;5077888;28;20243;-85
2023/03/31 07:31:39;;;;;;;2.43;1.13;;;10.60;99.90;;;;;;5073761;28;20253;-84
2023/03/31 07:34:05;;;;;;;1.80;1.03;;;10.60;99.90;;;;;;5082156;28;20216;-85
2023/03/31 07:36:34;;;;;;;2.07;1.50;;;10.60;99.90;;;;;;5070843;28;20638;-86
2023/03/31 07:39:00;;;;;;;0.90;0.90;;;10.70;99.90;;;;;;5082942;28;20196;-86
2023/03/31 07:41:26;;;;;;;0.97;0.90;;;10.70;99.90;;;;;;5084499;28;20221;-84
2023/03/31 07:43:51;;;;;;;1.20;1.10;;;10.70;99.90;;;;;;5083837;28;20241;-85
2023/03/31 07:46:23;;;;;;;3.50;0.83;;;10.70;99.90;;;;;;5090934;28;20225;-85
2023/03/31 07:48:50;;;;;;;1.17;1.07;;;10.70;99.90;;;;;;5091980;28;20231;-84
2023/03/31 07:51:18;;;;;;;0.63;0.63;;;10.80;99.90;;;;;;5081953;28;20177;-85
2023/03/31 07:53:44;;;;;;;0.30;0.30;;;10.70;99.90;;;;;;5080231;28;20666;-86
2023/03/31 07:56:11;;;;;;;0.50;0.50;;;10.60;99.90;;;;;;5083421;28;20213;-84
2023/03/31 07:58:36;;;;;;;0.73;0.63;;;10.60;99.90;;;;;;5084312;28;20254;-84
2023/03/31 08:01:03;;;;;;;0.93;0.77;;;10.60;99.90;;;;;;5048320;28;20209;-84
2023/03/31 08:03:30;;;;;;;0.93;0.43;;;10.50;99.90;;;;;;5067517;28;20241;-84
2023/03/31 08:05:56;;;;;;;0.23;0.23;;;10.50;99.90;;;;;;5083065;28;20188;-84
2023/03/31 08:08:22;;;;;;;0.20;0.20;;;10.50;99.90;;;;;;5066276;28;20231;-83
2023/03/31 08:10:49;;;;;;;2.87;1.33;;;10.40;99.90;;;;;;5083381;28;20221;-84
2023/03/31 08:13:15;;;;;;;2.27;1.30;;;10.40;99.90;;;;;;5068724;28;20227;-86
2023/03/31 08:15:41;;;;;;;0.97;0.40;;;10.40;99.90;;;;;;5088468;28;20220;-85
2023/03/31 08:18:07;;;;;;;1.07;0.33;;;10.40;99.90;;;;;;5067062;28;20213;-83
2023/03/31 08:20:33;;;;;;;0.87;0.60;;;10.40;99.90;;;;;;5070853;28;20219;-84
2023/03/31 08:22:59;;;;;;;0.40;0.40;;;10.40;99.90;;;;;;5069883;28;20228;-83
2023/03/31 08:25:25;;;;;;;0.80;0.80;;;10.40;99.90;;;;;;5089037;28;20247;-84
2023/03/31 08:27:50;;;;;;;2.03;1.50;;;10.40;99.90;;;;;;5071994;28;20698;-84
2023/03/31 08:30:18;;;;;;;1.13;1.07;;;10.40;99.90;;;;;;5055250;28;20303;-85
2023/03/31 08:32:44;;;;;;;1.83;1.10;;;10.50;99.90;;;;;;5073986;28;20631;-85
2023/03/31 08:35:10;;;;;;;0.77;0.70;;;10.60;99.90;;;;;;5081233;28;20287;-84
2023/03/31 08:37:36;;;;;;;2.37;1.00;;;10.60;99.90;;;;;;5052120;28;20232;-84
2023/03/31 08:40:04;;;;;;;0.67;0.67;;;10.70;99.90;;;;;;5082982;28;20301;-85
2023/03/31 08:42:40;;;;;;;1.27;0.83;;;10.70;99.90;;;;;;5070965;28;20273;-84
2023/03/31 08:45:06;;;;;;;0.60;0.60;;;10.80;99.90;;;;;;5080365;28;20177;-84
2023/03/31 08:47:35;;;;;;;1.13;0.87;;;10.80;99.90;;;;;;5082245;28;20217;-84
2023/03/31 08:50:14;;;;;;;4.37;1.93;;;10.90;99.90;;;;;;5079781;28;20211;-84
2023/03/31 08:53:10;;;;;;;4.97;1.50;;;10.90;99.90;;;;;;5088798;28;20217;-84
2023/03/31 08:55:50;;;;;;;1.93;1.20;;;11.10;99.90;;;;;;5070065;28;20231;-84
2023/03/31 08:58:31;;;;;;;1.67;1.57;;;11.10;99.90;;;;;;5091337;28;20310;-85
2023/03/31 09:01:35;;;;;;;1.73;0.80;;;11.20;99.90;;;;;;5083426;28;20216;-85
2023/03/31 09:04:22;;;;;;;1.27;1.13;;;11.20;99.90;;;;;;5080995;28;20671;-86
2023/03/31 09:07:22;;;;;;;1.37;1.30;;;11.30;99.90;;;;;;5078014;28;20229;-85
2023/03/31 09:09:58;;;;;;;1.30;1.20;;;11.20;99.90;;;;;;5086398;28;20716;-84
2023/03/31 09:12:30;;;;;;;5.83;1.53;;;11.20;99.90;;;;;;5070779;28;20701;-85
2023/03/31 09:15:00;;;;;;;1.20;1.10;;;11.40;99.90;;;;;;5083003;28;20199;-85
2023/03/31 09:17:32;;;;;;;1.30;1.13;;;11.60;99.90;;;;;;5090658;28;20271;-84
2023/03/31 09:20:27;;;;;;;1.40;1.30;;;11.70;99.90;;;;;;5087072;28;20228;-84
2023/03/31 09:23:26;;;;;;;4.73;1.63;;;11.80;99.90;;;;;;5059565;28;20210;-84
2023/03/31 09:25:52;;;;;;;1.20;1.10;;;12.10;99.90;;;;;;5076068;28;20217;-84
2023/03/31 09:28:41;;;;;;;2.37;1.80;;;12.10;99.90;;;;;;5081943;28;20738;-84
2023/03/31 09:31:19;;;;;;;2.73;2.23;;;12.30;99.90;;;;;;5090061;28;20217;-84
2023/03/31 09:33:46;;;;;;;4.00;1.77;;;12.40;99.90;;;;;;5075015;28;20217;-85
2023/03/31 09:36:17;;;;;;;0.67;0.67;;;12.60;99.90;;;;;;5082195;28;20188;-85
2023/03/31 09:38:45;;;;;;;3.37;2.43;;;12.40;99.90;;;;;;5091585;28;20212;-84
2023/03/31 09:41:13;;;;;;;2.87;1.63;;;12.60;99.90;;;;;;5080906;28;20583;-84
2023/03/31 09:43:41;;;;;;;1.23;1.13;;;12.60;99.90;;;;;;5079346;28;20208;-84
2023/03/31 09:46:23;;;;;;;3.43;1.70;;;12.50;99.90;;;;;;5063297;28;20216;-84
2023/03/31 09:49:16;;;;;;;1.27;1.17;;;12.40;99.90;;;;;;5091876;28;20727;-82
2023/03/31 09:51:46;;;;;;;5.97;1.53;;;12.50;99.90;;;;;;5094421;28;20259;-81
2023/03/31 09:54:20;;;;;;;1.63;1.37;;;12.60;99.90;;;;;;5093381;28;20184;-81
2023/03/31 09:56:49;;;;;;;1.40;1.03;;;12.60;99.90;;;;;;5092625;28;20453;-82
2023/03/31 09:59:33;;;;;;;0.90;0.90;;;12.60;99.90;;;;;;5094194;28;20240;-81
2023/03/31 10:02:15;;;;;;;1.57;0.73;;;12.70;99.90;;;;;;5092952;28;20750;-81
2023/03/31 10:04:45;;;;;;;2.17;1.33;;;12.80;99.90;;;;;;5094353;28;20243;-81
2023/03/31 10:07:11;;;;;;;2.73;1.03;;;12.70;99.90;;;;;;5093192;28;20248;-81
2023/03/31 10:09:38;;;;;;;1.07;0.70;;;12.60;99.90;;;;;;5094131;28;20755;-82
2023/03/31 10:12:19;;;;;;;1.70;0.93;;;12.50;99.90;;;;;;5076856;28;20741;-82
2023/03/31 10:14:53;;;;;;;7.00;1.40;;;12.40;99.90;;;;;;5091020;28;20196;-83
2023/03/31 10:17:23;;;;;;;1.93;1.53;;;12.40;99.90;;;;;;5092465;28;20297;-82
2023/03/31 10:19:58;;;;;;;0.90;0.90;;;12.30;99.90;;;;;;5091896;28;20299;-85
2023/03/31 10:22:43;;;;;;;3.53;1.23;;;12.30;99.90;;;;;;5092620;28;20285;-84
2023/03/31 10:25:16;;;;;;;1.80;1.70;;;12.30;99.90;;;;;;5093522;28;20219;-82
2023/03/31 10:27:46;;;;;;;1.43;1.23;;;12.30;99.90;;;;;;5091239;28;20633;-82
2023/03/31 10:30:20;;;;;;;7.60;1.60;;;12.30;99.90;;;;;;5092654;28;20264;-82
2023/03/31 10:32:46;;;;;;;1.43;1.33;;;12.40;99.90;;;;;;5092297;28;20168;-82
2023/03/31 10:35:32;;;;;;;1.53;1.43;;;12.60;99.90;;;;;;5075533;28;20689;-82
2023/03/31 10:38:10;;;;;;;3.47;1.27;;;12.80;99.90;;;;;;5092541;28;20686;-82
2023/03/31 10:40:37;;;;;;;3.80;1.50;;;12.90;99.90;;;;;;5092871;28;20294;-82
2023/03/31 10:43:19;;;;;;;4.17;2.47;;;13.10;99.90;;;;;;5090681;28;20312;-82
2023/03/31 10:45:50;;;;;;;3.77;2.20;;;13.30;99.90;;;;;;5093207;28;20690;-82
2023/03/31 10:48:17;;;;;;;5.53;2.13;;;13.60;99.90;;;;;;5093919;28;20642;-82
2023/03/31 10:50:43;;;;;;;6.87;2.20;;;13.60;99.90;;;;;;5092854;28;20189;-81
2023/03/31 10:53:14;;;;;;;3.13;1.67;;;13.80;99.90;;;;;;5092697;28;20219;-82
2023/03/31 10:56:04;;;;;;;3.03;1.83;;;14.00;99.90;;;;;;5091098;28;20220;-83
2023/03/31 10:58:39;;;;;;;4.57;1.67;;;14.00;99.90;;;;;;5091762;28;20240;-83
2023/03/31 11:01:33;;;;;;;1.70;1.37;;;14.10;99.90;;;;;;5093400;28;20289;-82
2023/03/31 11:04:27;;;;;;;5.00;2.27;;;14.50;99.90;;;;;;5093531;28;20224;-82
2023/03/31 11:07:02;;;;;;;7.77;2.23;;;14.50;99.90;;;;;;5092421;28;20695;-82
2023/03/31 11:09:34;;;;;;;2.90;1.97;;;14.40;99.90;;;;;;5093304;28;20168;-82
2023/03/31 11:12:26;;;;;;;7.23;3.03;;;14.40;99.90;;;;;;5092586;28;20169;-83
2023/03/31 11:15:07;;;;;;;8.90;2.40;;;14.70;99.90;;;;;;5093794;28;20611;-84
2023/03/31 11:17:36;;;;;;;5.27;1.73;;;14.80;99.90;;;;;;5091297;28;20295;-83
2023/03/31 11:20:17;;;;;;;7.13;4.60;;;14.70;99.90;;;;;;5093181;28;20231;-82
2023/03/31 11:23:09;;;;;;;8.13;5.27;;;14.80;99.90;;;;;;5092645;28;20243;-83
2023/03/31 11:25:52;;;;;;;3.90;1.40;;;14.80;99.90;;;;;;5092477;28;20216;-82
2023/03/31 11:28:26;;;;;;;7.17;2.00;;;15.10;99.90;;;;;;5091928;28;20311;-83
2023/03/31 11:31:01;;;;;;;2.90;2.10;;;15.30;99.90;;;;;;5091818;28;20296;-84
2023/03/31 11:33:34;;;;;;;4.83;2.90;;;15.30;99.90;;;;;;5091542;28;20172;-83
2023/03/31 11:36:25;;;;;;;1.50;1.40;;;15.10;99.90;;;;;;5091316;28;20169;-82
2023/03/31 11:39:06;;;;;;;6.13;2.50;;;15.00;99.90;;;;;;5093295;28;20213;-83
2023/03/31 11:41:58;;;;;;;1.23;1.13;;;14.60;99.90;;;;;;5092004;28;20224;-82
2023/03/31 11:44:28;;;;;;;8.10;1.47;;;14.70;99.90;;;;;;5091685;28;20224;-82
2023/03/31 11:47:05;;;;;;;4.33;1.33;;;14.70;99.90;;;;;;5091504;28;20674;-82
2023/03/31 11:49:38;;;;;;;1.20;1.10;;;14.50;99.90;;;;;;5092968;28;20220;-85
2023/03/31 11:52:13;;;;;;;2.17;1.80;;;14.30;99.90;;;;;;5091683;28;20221;-83
2023/03/31 11:54:51;;;;;;;1.97;1.13;;;14.10;99.90;;;;;;5091862;28;20360;-82
2023/03/31 11:57:26;;;;;;;3.47;0.90;;;14.20;99.90;;;;;;5089118;28;20200;-82
2023/03/31 12:00:05;;;;;;;10.07;1.20;;;14.40;99.90;;;;;;5093377;28;20228;-82
2023/03/31 12:02:37;;;;;;;2.30;1.30;;;14.50;99.90;;;;;;5091381;28;20299;-82
2023/03/31 12:05:08;;;;;;;1.63;0.97;;;14.50;99.90;;;;;;5092449;28;20242;-82
2023/03/31 12:08:00;;;;;;;2.50;1.60;;;14.20;99.90;;;;;;5090253;28;20682;-82
2023/03/31 12:10:32;;;;;;;2.07;1.80;;;14.30;99.90;;;;;;5092158;28;20223;-83
2023/03/31 12:13:20;;;;;;;1.83;1.70;;;14.40;99.90;;;;;;5091048;28;20227;-84
2023/03/31 12:16:00;;;;;;;1.17;1.00;;;14.40;99.90;;;;;;5089884;28;20299;-83
2023/03/31 12:18:31;;;;;;;3.27;1.20;;;14.60;99.90;;;;;;5090771;28;20189;-83
2023/03/31 12:21:02;;;;;;;5.07;2.97;;;14.70;99.90;;;;;;5091079;28;20168;-82
2023/03/31 12:23:34;;;;;;;5.63;2.47;;;14.80;99.90;;;;;;5092251;28;20244;-82
2023/03/31 12:26:15;;;;;;;4.37;2.50;;;15.10;99.90;;;;;;5089927;28;20244;-83
2023/03/31 12:28:43;;;;;;;2.07;1.13;;;15.10;99.90;;;;;;5092062;28;20240;-83
2023/03/31 12:31:17;;;;;;;1.80;1.70;;;14.90;99.90;;;;;;5090209;28;20227;-83
2023/03/31 12:34:02;;;;;;;2.43;1.40;;;14.80;99.90;;;;;;5087884;28;20303;-83
2023/03/31 12:36:50;;;;;;;0.60;0.60;;;14.70;99.90;;;;;;5089952;28;20224;-84
2023/03/31 12:39:42;;;;;;;1.47;1.37;;;14.60;99.90;;;;;;5092057;28;20246;-84
2023/03/31 12:42:39;;;;;;;1.40;1.30;;;14.50;99.90;;;;;;5090931;28;20224;-83
2023/03/31 12:45:28;;;;;;;2.43;1.23;;;14.30;99.90;;;;;;5083367;28;20280;-83
2023/03/31 12:48:06;;;;;;;2.67;1.70;;;14.30;99.90;;;;;;5090934;28;20365;-83
2023/03/31 12:50:35;;;;;;;2.43;2.10;;;14.30;99.90;;;;;;5090645;28;20204;-83
2023/03/31 12:53:23;;;;;;;0.80;0.80;;;14.40;99.90;;;;;;5091562;28;20285;-84
2023/03/31 12:55:50;;;;;;;1.10;1.10;;;14.30;99.90;;;;;;5090713;28;20165;-83
2023/03/31 12:58:25;;;;;;;1.97;1.17;;;14.40;99.90;;;;;;5090522;28;20260;-83
2023/03/31 13:01:10;;;;;;;5.47;1.20;;;14.40;99.90;;;;;;5090710;28;20234;-83
2023/03/31 13:04:10;;;;;;;0.87;0.87;;;14.50;99.90;;;;;;5091836;28;20235;-83
2023/03/31 13:06:35;;;;;;;0.97;0.90;;;14.70;99.90;;;;;;5090364;28;20733;-83
2023/03/31 13:09:22;;;;;;;2.87;1.43;;;14.70;99.90;;;;;;5091459;28;20254;-83
2023/03/31 13:11:47;;;;;;;2.73;1.37;;;14.20;99.90;;;;;;5076881;28;20240;-84
2023/03/31 13:14:35;;;;;;;5.37;1.60;;;14.00;99.90;;;;;;5091625;28;20223;-84
2023/03/31 13:17:38;;;;;;;3.57;1.10;;;13.90;99.90;;;;;;5090556;28;20303;-83